Fairplay, CO (80440)

11:56 PM MDT on April 22, 2017 (GMT -0600)
Valley of the Sun | | Change Station

Elev 11000 ft 39.24 °N, 106.11 °W | Updated 1 hour ago

Clear
Clear
20.5 °F
Feels Like 20 °F
N
0.0
Wind Variable Wind from North
Gusts 0.0 mph

Today
High -- | Low -- °F
--% Chance of Precip.
Yesterday
High -- | Low -- °F
Precip. -- in
Pressure 30.15 in
Visibility 10.0 miles
Clouds Clear
Windchill 20 °F
Dew Point 13 °F
Humidity 71%
Rainfall 0.00 in
Snow Depth Not available.
6:16 AM 7:48 PM
Waning Crescent, 14% visible
METAR KLXV 230553Z AUTO 05003KT 10SM CLR M04/M07 A3028 RMK AO2 SLP209 T10391072 10061 21039 51005
Pressure 30.15 in
Visibility 10.0 miles
Clouds Clear
Windchill 20 °F
Dew Point 13 °F
Humidity 71%
Rainfall 0.00 in
Snow Depth Not available.
6:16 AM 7:48 PM
Waning Crescent, 14% visible
METAR KLXV 230553Z AUTO 05003KT 10SM CLR M04/M07 A3028 RMK AO2 SLP209 T10391072 10061 21039 51005

Get Severe Weather Alerts

Thanks for signing up!

Be on the lookout for a verification email in your inbox.

You'll start receiving the daily forecast at 8 AM.

×

10-Day Weather Forecast

Almanac

Astronomy

Apr. 22, 2017 Rise Set
Actual Time
Civil Twilight
Nautical Twilight
Astronomical Twilight
Moon
Length of Visible Light
Length of Day
Tomorrow will be .
, % of the Moon is Illuminated

Today's Extremes

State Highs State Lows

Community

WunderPhotos

WunderBlog® & News

Nearby

Air Quality

  Air Quality AQ Index Pollutant
Not available.

Snow Depth

Station Depth Elevation

Earthquake Activity

City Distance Mag. Time & Date
Minimum magnitude displayed is 2.5.

Coastal Water Temperatures

Place Temperature

Stations

Nearby Weather Stations

Station Location Temp. Windchill Dew Point Humidity Wind Precip. Elev Updated Type
                   

Watches & Warnings

There are currently no watches in effect.